TFM - Tactical Decision Aid (Experimental) INFO Settings

ID: Runway Winds: METAR Board: Map:

Kclt - Charlotte-Douglas Intl

Updated at: 1104 UTC 26 Nov 2014
Latest TAF at: 0908 UTC 26 Nov 2014

TAF Board

Time1052Z26/12Z26/13Z26/14Z26/15Z26/16Z26/17Z26/18Z26/19Z26/20Z26/21Z26/22Z26/23Z27/00Z
TypeOBSPRVLPRVLPRVLPRVLPRVLPRVLPRVLPRVLPRVLPRVLPRVLPRVLPRVL
VIS6444444>6>6>6>6>6>6>6
CIG5014141414141450505050505050
CoverOVCOVCOVCOVCOVCOVCOVCOVCOVCOVCOVCOVCOVCOVC
FltCatVFRMVFRMVFRMVFRMVFRMVFRMVFRVFRVFRVFRVFRVFRVFRVFR
WXRA BR-RA BR-RA BR-RA BR-RA BR-RA BR-RA BR--------------
WDir10330330330330330330300300300300300300300
WSpd99999998888888
WGst----------------------------
TAF
KCLT 260908Z 2609/2706 01008KT 6SM -RA BR BKN050 OVC090
  TEMPO 2610/2612 4SM RA BR SCT008 BKN014 OVC050
  FM261200 33009KT 4SM -RA BR SCT008 OVC014
  FM261800 30008KT P6SM OVC050
  FM270100 21004KT P6SM BKN240


METAR
KCLT 261052Z 01009KT 6SM RA BR SCT005 OVC050 07/05 A2994 RMK AO2 SLP137 P0020 T00670050
KCLT 260952Z 36011KT 4SM +RA BR FEW007 BKN037 OVC049 07/05 A2994 RMK AO2 SLP138 P0006 T00670050

TAF/METAR Board Legend

Hazard VFR MVFR IFR LIFR
Visibility (sm) >5 3≤X≤5 1≤X<3 <1
Ceiling (100 ft) >30 10≤X≤30 5≤X<10 <5
Wind Speed (kt) <10 10≤X<20 20≤X<30 ≥30
Wind Gust (kt) <15 15≤X<25 25≤X<35 ≥35
Weather No Wx Reported VCTS,-TS,-FZRA TS,FZRA +TS,+FZRA




Page loaded:  11:04 UTC  |   03:04 AM Pacific  |   04:04 AM Mountain  |   05:04 AM Central  |   06:04 AM Eastern

 

ADVISORIES

FORECASTS

FORECASTS

OBSERVATIONS

USER TOOLS

ABOUT US